createdAt,value
2022-10-11T00:01:29.667Z,101388.66
2022-10-11T00:03:32.849Z,101383.41
2022-10-11T00:05:36.591Z,101378.16
2022-10-11T00:07:41.044Z,101388.66
2022-10-11T00:09:44.226Z,101395.75
2022-10-11T00:11:47.062Z,101394.06
2022-10-11T00:13:49.945Z,101393.19
2022-10-11T00:15:52.811Z,101401.03
2022-10-11T00:17:55.737Z,101399.28
2022-10-11T00:19:58.722Z,101398.44
2022-10-11T00:22:02.457Z,101400.19
2022-10-11T00:24:07.275Z,101405.47
2022-10-11T00:26:11.688Z,101408.94
2022-10-11T00:28:14.813Z,101408.97
2022-10-11T00:30:18.703Z,101415.19
2022-10-11T00:32:21.655Z,101416.16
2022-10-11T00:34:24.507Z,101418.81
2022-10-11T00:36:27.443Z,101416.19
2022-10-11T00:38:31.970Z,101422.41
2022-10-11T00:40:36.808Z,101420.66
2022-10-11T00:42:42.556Z,101429.50
2022-10-11T00:44:48.107Z,101424.25
2022-10-11T00:46:56.029Z,101425.13
2022-10-11T00:49:03.023Z,101424.25
2022-10-11T00:51:17.852Z,101435.72
2022-10-11T00:53:20.747Z,101431.38
2022-10-11T00:55:28.401Z,101433.19
2022-10-11T00:57:38.746Z,101426.19
2022-10-11T00:59:44.603Z,101431.50
2022-10-11T01:01:47.785Z,101429.75
2022-10-11T01:03:50.676Z,101433.28
2022-10-11T01:05:53.778Z,101427.19
2022-10-11T01:07:56.974Z,101427.22
2022-10-11T01:09:59.820Z,101430.72
2022-10-11T01:12:05.171Z,101433.38
2022-10-11T01:14:32.456Z,101436.00
2022-10-11T01:16:37.636Z,101429.84
2022-10-11T01:18:46.888Z,101425.50
2022-10-11T01:20:56.740Z,101429.84
2022-10-11T01:23:31.962Z,101436.88
2022-10-11T01:25:37.900Z,101431.69
2022-10-11T01:27:49.858Z,101433.34
2022-10-11T01:30:05.436Z,101437.75
2022-10-11T01:32:15.703Z,101430.78
2022-10-11T01:34:28.022Z,101435.22
2022-10-11T01:36:33.597Z,101438.81
2022-10-11T01:38:40.378Z,101438.81
2022-10-11T01:40:47.150Z,101445.88
2022-10-11T01:42:50.974Z,101440.56
2022-10-11T01:44:54.843Z,101441.47
2022-10-11T01:46:57.769Z,101438.00
2022-10-11T01:49:03.612Z,101441.53
2022-10-11T01:51:10.204Z,101443.31
2022-10-11T01:53:38.938Z,101443.34
2022-10-11T01:55:48.405Z,101444.22
2022-10-11T01:58:11.177Z,101445.97
2022-10-11T02:00:15.967Z,101441.59
2022-10-11T02:02:33.477Z,101446.88
2022-10-11T02:04:44.499Z,101442.50
2022-10-11T02:06:50.689Z,101444.22
2022-10-11T02:08:57.285Z,101446.88
2022-10-11T02:11:03.478Z,101445.06
2022-10-11T02:13:13.166Z,101454.69
2022-10-11T02:15:17.721Z,101455.59
2022-10-11T02:17:23.199Z,101449.44
2022-10-11T02:19:30.488Z,101451.16
2022-10-11T02:21:35.930Z,101444.16
2022-10-11T02:23:42.219Z,101447.66
2022-10-11T02:25:46.728Z,101453.78
2022-10-11T02:27:51.716Z,101454.69
2022-10-11T02:29:55.411Z,101453.81
2022-10-11T02:32:00.459Z,101452.06
2022-10-11T02:34:07.840Z,101456.47
2022-10-11T02:36:15.779Z,101456.50
2022-10-11T02:38:23.291Z,101460.13
2022-10-11T02:40:28.811Z,101458.38
2022-10-11T02:42:34.003Z,101458.47
2022-10-11T02:44:40.132Z,101454.97
2022-10-11T02:46:43.327Z,101459.38
2022-10-11T02:48:46.286Z,101459.34
2022-10-11T02:50:49.154Z,101462.03
2022-10-11T02:52:52.041Z,101464.66
2022-10-11T02:54:56.246Z,101461.13
2022-10-11T02:56:59.558Z,101466.41
2022-10-11T02:59:02.418Z,101469.97
2022-10-11T03:01:12.600Z,101468.19
2022-10-11T03:03:15.812Z,101470.84
2022-10-11T03:05:18.958Z,101462.13
2022-10-11T03:07:21.853Z,101465.66
2022-10-11T03:09:24.931Z,101468.31
2022-10-11T03:11:29.258Z,101472.72
2022-10-11T03:13:32.190Z,101479.69
2022-10-11T03:15:35.186Z,101476.19
2022-10-11T03:17:38.012Z,101471.81
2022-10-11T03:19:41.057Z,101479.69
2022-10-11T03:21:44.642Z,101477.09
2022-10-11T03:23:47.689Z,101482.38
2022-10-11T03:25:51.986Z,101479.75
2022-10-11T03:27:56.904Z,101488.59
2022-10-11T03:29:59.753Z,101486.03
2022-10-11T03:32:02.655Z,101486.91
2022-10-11T03:34:05.538Z,101488.72
2022-10-11T03:36:11.517Z,101493.09
2022-10-11T03:38:15.777Z,101496.59
2022-10-11T03:40:19.965Z,101500.94
2022-10-11T03:42:22.832Z,101506.16
2022-10-11T03:44:27.488Z,101500.97
2022-10-11T03:46:30.453Z,101499.22
2022-10-11T03:48:33.332Z,101511.47
2022-10-11T03:50:36.389Z,101517.63
2022-10-11T03:52:39.254Z,101517.69
2022-10-11T03:54:42.080Z,101515.97
2022-10-11T03:56:45.339Z,101518.66
2022-10-11T03:58:48.593Z,101522.19
2022-10-11T04:00:54.189Z,101530.94
2022-10-11T04:02:57.212Z,101523.94
2022-10-11T04:05:00.116Z,101524.81
2022-10-11T04:07:03.015Z,101529.22
2022-10-11T04:09:06.172Z,101531.84
2022-10-11T04:11:10.070Z,101537.09
2022-10-11T04:13:13.545Z,101533.63
2022-10-11T04:15:16.587Z,101535.41
2022-10-11T04:17:22.679Z,101536.25
2022-10-11T04:19:26.070Z,101538.03
2022-10-11T04:21:29.110Z,101541.53
2022-10-11T04:23:32.338Z,101545.00
2022-10-11T04:25:35.991Z,101535.41
2022-10-11T04:27:39.215Z,101539.84
2022-10-11T04:29:42.097Z,101543.34
2022-10-11T04:31:44.977Z,101551.22
2022-10-11T04:33:49.690Z,101553.88
2022-10-11T04:35:54.664Z,101553.88
2022-10-11T04:37:57.594Z,101540.78
2022-10-11T04:40:00.489Z,101545.16
2022-10-11T04:42:03.332Z,101560.91
2022-10-11T04:44:06.688Z,101551.28
2022-10-11T04:46:11.064Z,101556.53
2022-10-11T04:48:15.415Z,101560.00
2022-10-11T04:50:20.849Z,101556.50
2022-10-11T04:52:26.003Z,101562.63
2022-10-11T04:54:29.532Z,101563.47
2022-10-11T04:56:39.695Z,101562.66
2022-10-11T04:58:43.381Z,101564.38
2022-10-11T05:00:47.216Z,101559.16
2022-10-11T05:02:52.240Z,101565.31
2022-10-11T05:05:00.451Z,101567.91
2022-10-11T05:07:06.594Z,101566.16
2022-10-11T05:09:09.881Z,101571.41
2022-10-11T05:11:16.258Z,101576.69
2022-10-11T05:13:23.710Z,101572.31
2022-10-11T05:15:27.835Z,101567.97
2022-10-11T05:17:32.312Z,101570.63
2022-10-11T05:19:36.855Z,101574.94
2022-10-11T05:21:40.513Z,101571.47
2022-10-11T05:23:47.197Z,101575.81
2022-10-11T05:25:52.101Z,101576.69
2022-10-11T05:28:07.248Z,101580.22
2022-10-11T05:30:14.947Z,101577.59
2022-10-11T05:32:18.145Z,101584.56
2022-10-11T05:34:21.502Z,101580.22
2022-10-11T05:36:25.935Z,101585.44
2022-10-11T05:38:30.182Z,101592.41
2022-10-11T05:40:44.234Z,101591.56
2022-10-11T05:42:47.645Z,101585.44
2022-10-11T05:44:51.367Z,101591.53
2022-10-11T05:46:57.381Z,101597.66
2022-10-11T05:49:04.054Z,101593.31
2022-10-11T05:51:13.331Z,101594.19
2022-10-11T05:53:17.324Z,101595.91
2022-10-11T05:55:21.170Z,101600.28
2022-10-11T05:57:37.292Z,101597.66
2022-10-11T05:59:42.634Z,101599.44
2022-10-11T06:01:50.021Z,101601.16
2022-10-11T06:03:54.612Z,101602.03
2022-10-11T06:06:19.307Z,101605.50
2022-10-11T06:08:22.468Z,101598.53
2022-10-11T06:10:27.137Z,101597.63
2022-10-11T06:12:38.718Z,101615.13
2022-10-11T06:14:43.036Z,101617.72
2022-10-11T06:16:51.370Z,101609.00
2022-10-11T06:19:00.115Z,101613.31
2022-10-11T06:21:11.127Z,101618.47
2022-10-11T06:23:15.679Z,101627.22
2022-10-11T06:25:21.295Z,101620.13
2022-10-11T06:27:25.363Z,101618.25
2022-10-11T06:29:32.140Z,101628.63
2022-10-11T06:31:35.415Z,101625.00
2022-10-11T06:33:43.815Z,101622.38
2022-10-11T06:35:51.590Z,101627.44
2022-10-11T06:37:57.734Z,101624.72
2022-10-11T06:40:02.279Z,101621.03
2022-10-11T06:42:11.339Z,101626.09
2022-10-11T06:44:19.865Z,101626.81
2022-10-11T06:46:27.771Z,101622.22
2022-10-11T06:48:35.665Z,101628.13
2022-10-11T06:50:59.564Z,101624.34
2022-10-11T06:53:15.850Z,101625.75
2022-10-11T06:55:19.321Z,101627.28
2022-10-11T06:57:22.202Z,101626.06
2022-10-11T06:59:25.387Z,101624.03
2022-10-11T07:01:30.086Z,101623.81
2022-10-11T07:03:33.534Z,101626.09
2022-10-11T07:05:36.824Z,101633.53
2022-10-11T07:07:42.071Z,101623.81
2022-10-11T07:09:45.108Z,101634.63
2022-10-11T07:11:49.042Z,101628.94
2022-10-11T07:13:53.891Z,101628.78
2022-10-11T07:15:57.140Z,101627.94
2022-10-11T07:18:01.395Z,101627.66
2022-10-11T07:20:04.522Z,101633.41
2022-10-11T07:22:09.301Z,101627.31
2022-10-11T07:24:15.807Z,101622.34
2022-10-11T07:26:25.332Z,101631.47
2022-10-11T07:28:30.790Z,101626.81
2022-10-11T07:30:46.804Z,101622.59
2022-10-11T07:32:53.685Z,101623.22
2022-10-11T07:35:01.973Z,101626.75
2022-10-11T07:37:05.096Z,101631.34
2022-10-11T07:39:09.296Z,101628.06
2022-10-11T07:41:15.207Z,101623.34
2022-10-11T07:43:18.604Z,101628.34
2022-10-11T07:45:24.075Z,101617.41
2022-10-11T07:47:30.252Z,101616.66
2022-10-11T07:49:38.255Z,101607.88
2022-10-11T07:51:50.887Z,101604.25
2022-10-11T07:53:57.215Z,101605.63
2022-10-11T07:56:19.843Z,101612.72
2022-10-11T07:58:23.685Z,101610.97
2022-10-11T08:00:28.304Z,101605.00
2022-10-11T08:02:34.201Z,101609.59
2022-10-11T08:04:41.471Z,101602.00
2022-10-11T08:06:55.406Z,101607.81
2022-10-11T08:09:03.362Z,101613.63
2022-10-11T08:11:29.743Z,101603.75
2022-10-11T08:13:39.030Z,101607.25
2022-10-11T08:15:57.516Z,101606.84
2022-10-11T08:18:03.302Z,101613.28
2022-10-11T08:20:14.102Z,101614.63
2022-10-11T08:22:32.199Z,101607.25
2022-10-11T08:24:41.077Z,101606.88
2022-10-11T08:26:51.214Z,101605.28
2022-10-11T08:29:04.925Z,101605.22
2022-10-11T08:31:18.720Z,101609.59
2022-10-11T08:33:24.232Z,101602.56
2022-10-11T08:35:31.163Z,101607.81
2022-10-11T08:37:37.784Z,101612.84
2022-10-11T08:39:41.266Z,101611.16
2022-10-11T08:41:49.541Z,101603.78
2022-10-11T08:43:59.167Z,101603.44
2022-10-11T08:46:11.114Z,101611.00
2022-10-11T08:48:17.049Z,101611.41
2022-10-11T08:50:21.703Z,101605.91
2022-10-11T08:52:28.152Z,101604.38
2022-10-11T08:54:38.529Z,101610.00
2022-10-11T08:56:43.303Z,101606.22
2022-10-11T08:58:48.544Z,101606.16
2022-10-11T09:00:53.852Z,101605.16
2022-10-11T09:03:08.389Z,101598.69
2022-10-11T09:05:15.825Z,101596.28
2022-10-11T09:07:30.622Z,101600.88
2022-10-11T09:09:50.755Z,101608.53
2022-10-11T09:12:05.671Z,101599.28
2022-10-11T09:14:21.736Z,101596.94
2022-10-11T09:16:31.647Z,101609.16
2022-10-11T09:18:45.979Z,101601.72
2022-10-11T09:21:08.320Z,101604.72
2022-10-11T09:23:22.678Z,101603.28
2022-10-11T09:25:32.485Z,101602.38
2022-10-11T09:28:01.378Z,101607.38
2022-10-11T09:30:06.033Z,101599.38
2022-10-11T09:32:14.555Z,101595.81
2022-10-11T09:34:27.385Z,101599.72
2022-10-11T09:36:39.207Z,101605.50
2022-10-11T09:38:47.547Z,101596.47
2022-10-11T09:41:01.782Z,101596.91
2022-10-11T09:43:04.745Z,101597.72
2022-10-11T09:45:21.591Z,101601.81
2022-10-11T09:47:26.413Z,101596.16
2022-10-11T09:49:32.595Z,101604.53
2022-10-11T09:51:35.598Z,101606.78
2022-10-11T09:53:58.286Z,101602.00
2022-10-11T09:56:13.098Z,101600.69
2022-10-11T09:58:29.460Z,101593.00
2022-10-11T10:00:33.673Z,101587.97
2022-10-11T10:02:55.323Z,101591.81
2022-10-11T10:05:18.119Z,101592.53
2022-10-11T10:07:26.076Z,101603.22
2022-10-11T10:09:38.871Z,101593.75
2022-10-11T10:11:44.217Z,101589.06
2022-10-11T10:13:56.047Z,101594.81
2022-10-11T10:16:01.453Z,101602.44
2022-10-11T10:18:09.475Z,101605.72
2022-10-11T10:20:22.353Z,101607.19
2022-10-11T10:22:35.023Z,101608.28
2022-10-11T10:24:43.888Z,101607.00
2022-10-11T10:27:21.516Z,101607.00
2022-10-11T10:29:29.052Z,101609.00
2022-10-11T10:32:01.494Z,101609.81
2022-10-11T10:34:03.468Z,101610.19
2022-10-11T10:36:27.161Z,101615.06
2022-10-11T10:38:39.163Z,101616.72
2022-10-11T10:40:51.815Z,101614.00
2022-10-11T10:43:00.405Z,101622.66
2022-10-11T10:45:13.099Z,101611.69
2022-10-11T10:47:22.861Z,101616.88
2022-10-11T10:49:53.029Z,101614.44
2022-10-11T10:52:06.960Z,101607.47
2022-10-11T10:54:18.724Z,101606.38
2022-10-11T10:56:30.468Z,101603.91
2022-10-11T10:58:48.754Z,101605.88
2022-10-11T11:00:54.364Z,101602.22
2022-10-11T11:02:59.928Z,101594.38
2022-10-11T11:05:12.351Z,101603.91
2022-10-11T11:07:23.276Z,101604.22
2022-10-11T11:09:36.164Z,101598.22
2022-10-11T11:11:46.911Z,101593.47
2022-10-11T11:13:58.307Z,101593.66
2022-10-11T11:16:12.922Z,101592.47
2022-10-11T11:18:32.126Z,101586.44
2022-10-11T11:20:49.493Z,101583.03
2022-10-11T11:23:03.289Z,101581.84
2022-10-11T11:25:19.255Z,101580.97
2022-10-11T11:27:35.563Z,101579.00
2022-10-11T11:29:49.821Z,101582.84
2022-10-11T11:32:14.958Z,101578.03
2022-10-11T11:34:23.476Z,101578.47
2022-10-11T11:36:33.232Z,101580.94
2022-10-11T11:38:43.804Z,101581.84
2022-10-11T11:40:51.133Z,101581.53
2022-10-11T11:42:59.785Z,101573.56
2022-10-11T11:45:17.845Z,101574.06
2022-10-11T11:47:24.880Z,101568.50
2022-10-11T11:49:35.510Z,101576.25
2022-10-11T11:51:45.724Z,101573.19
2022-10-11T11:53:53.099Z,101575.06
2022-10-11T11:56:03.067Z,101571.91
2022-10-11T11:58:18.894Z,101570.34
2022-10-11T12:00:27.922Z,101571.56
2022-10-11T12:02:47.192Z,101566.88
2022-10-11T12:04:53.898Z,101561.22
2022-10-11T12:07:21.881Z,101560.56
2022-10-11T12:09:24.952Z,101560.44
2022-10-11T12:11:35.441Z,101556.97
2022-10-11T12:13:39.829Z,101564.97
2022-10-11T12:15:57.920Z,101555.56
2022-10-11T12:18:06.237Z,101560.22
2022-10-11T12:20:21.123Z,101552.84
2022-10-11T12:22:41.489Z,101556.69
2022-10-11T12:24:55.938Z,101548.00
2022-10-11T12:27:41.543Z,101546.97
2022-10-11T12:29:48.260Z,101540.91
2022-10-11T12:31:52.414Z,101533.91
2022-10-11T12:34:21.237Z,101538.06
2022-10-11T12:36:34.073Z,101536.75
2022-10-11T12:38:39.735Z,101540.63
2022-10-11T12:40:47.363Z,101544.34
2022-10-11T12:43:22.879Z,101541.13
2022-10-11T12:45:35.400Z,101548.94
2022-10-11T12:47:43.001Z,101539.59
2022-10-11T12:49:54.129Z,101542.16
2022-10-11T12:52:05.982Z,101543.59
2022-10-11T12:54:46.302Z,101538.41
2022-10-11T12:56:55.496Z,101529.59
2022-10-11T12:59:08.723Z,101532.00
2022-10-11T13:01:17.896Z,101535.00
2022-10-11T13:03:32.820Z,101528.09
2022-10-11T13:05:51.037Z,101535.72
2022-10-11T13:07:58.514Z,101529.34
2022-10-11T13:10:01.824Z,101533.34
2022-10-11T13:12:08.062Z,101536.31
2022-10-11T13:14:17.623Z,101529.91
2022-10-11T13:16:23.347Z,101529.75
2022-10-11T13:18:27.107Z,101528.66
2022-10-11T13:20:32.264Z,101533.31
2022-10-11T13:22:37.009Z,101528.50
2022-10-11T13:24:41.113Z,101522.59
2022-10-11T13:26:45.147Z,101520.81
2022-10-11T13:28:50.358Z,101517.09
2022-10-11T13:30:57.947Z,101507.69
2022-10-11T13:33:01.837Z,101508.38
2022-10-11T13:35:10.182Z,101500.00
2022-10-11T13:37:17.878Z,101509.13
2022-10-11T13:39:31.097Z,101506.44
2022-10-11T13:41:40.898Z,101508.50
2022-10-11T13:43:45.765Z,101504.75
2022-10-11T13:45:49.009Z,101512.44
2022-10-11T13:47:57.102Z,101504.50
2022-10-11T13:50:11.512Z,101505.31
2022-10-11T13:52:23.533Z,101498.03
2022-10-11T13:54:26.587Z,101496.97
2022-10-11T13:56:32.230Z,101503.19
2022-10-11T13:58:38.766Z,101497.81
2022-10-11T14:00:53.793Z,101490.25
2022-10-11T14:02:59.928Z,101496.75
2022-10-11T14:05:02.877Z,101498.84
2022-10-11T14:07:05.813Z,101504.34
2022-10-11T14:09:18.431Z,101495.50
2022-10-11T14:11:35.010Z,101496.84
2022-10-11T14:13:40.093Z,101491.13
2022-10-11T14:15:42.944Z,101490.75
2022-10-11T14:17:46.887Z,101486.03
2022-10-11T14:20:11.496Z,101491.66
2022-10-11T14:22:17.102Z,101490.63
2022-10-11T14:24:22.393Z,101489.50
2022-10-11T14:26:26.981Z,101494.09
2022-10-11T14:28:30.001Z,101483.00
2022-10-11T14:30:32.921Z,101485.88
2022-10-11T14:32:36.380Z,101486.44
2022-10-11T14:34:41.767Z,101488.25
2022-10-11T14:36:46.002Z,101500.50
2022-10-11T14:38:48.835Z,101497.50
2022-10-11T14:40:51.878Z,101494.97
2022-10-11T14:42:54.889Z,101493.69
2022-10-11T14:44:57.802Z,101492.06
2022-10-11T14:47:01.335Z,101485.94
2022-10-11T14:49:10.161Z,101485.56
2022-10-11T14:51:14.087Z,101499.91
2022-10-11T14:53:18.404Z,101498.09
2022-10-11T14:55:21.561Z,101494.69
2022-10-11T14:57:26.273Z,101491.75
2022-10-11T14:59:34.173Z,101494.00
2022-10-11T15:01:37.260Z,101497.59
2022-10-11T15:03:40.497Z,101494.88
2022-10-11T15:05:44.207Z,101497.91
2022-10-11T15:07:47.074Z,101493.88
2022-10-11T15:09:51.426Z,101494.66
2022-10-11T15:11:56.081Z,101490.75
2022-10-11T15:13:58.975Z,101487.44
2022-10-11T15:16:03.417Z,101484.28
2022-10-11T15:18:09.195Z,101491.03
2022-10-11T15:20:20.231Z,101483.56
2022-10-11T15:22:24.693Z,101484.69
2022-10-11T15:24:27.942Z,101481.94
2022-10-11T15:26:34.069Z,101483.91
2022-10-11T15:28:36.963Z,101485.69
2022-10-11T15:30:41.850Z,101478.41
2022-10-11T15:32:45.002Z,101479.44
2022-10-11T15:34:47.958Z,101479.69
2022-10-11T15:36:51.395Z,101488.78
2022-10-11T15:38:54.266Z,101485.03
2022-10-11T15:40:57.116Z,101483.16
2022-10-11T15:43:01.829Z,101482.88
2022-10-11T15:45:05.157Z,101481.88
2022-10-11T15:47:08.050Z,101481.72
2022-10-11T15:49:12.682Z,101484.31
2022-10-11T15:51:15.913Z,101484.31
2022-10-11T15:53:20.437Z,101475.66
2022-10-11T15:55:23.361Z,101481.28
2022-10-11T15:57:27.062Z,101481.72
2022-10-11T15:59:31.321Z,101488.09
2022-10-11T16:01:34.354Z,101492.66
2022-10-11T16:03:37.476Z,101491.03
2022-10-11T16:05:41.595Z,101484.59
2022-10-11T16:07:44.505Z,101481.06
2022-10-11T16:09:47.812Z,101479.59
2022-10-11T16:11:50.742Z,101481.59
2022-10-11T16:13:55.961Z,101478.53
2022-10-11T16:16:03.674Z,101482.00
2022-10-11T16:18:10.055Z,101480.53
2022-10-11T16:20:14.285Z,101478.31
2022-10-11T16:22:17.793Z,101479.63
2022-10-11T16:24:22.173Z,101481.72
2022-10-11T16:26:27.243Z,101485.81
2022-10-11T16:28:30.913Z,101487.00
2022-10-11T16:30:34.013Z,101484.75
2022-10-11T16:32:39.008Z,101488.81
2022-10-11T16:34:42.451Z,101486.13
2022-10-11T16:36:45.988Z,101492.13
2022-10-11T16:38:51.171Z,101490.44
2022-10-11T16:40:54.376Z,101495.25
2022-10-11T16:42:57.954Z,101500.00
2022-10-11T16:45:00.948Z,101497.84
2022-10-11T16:47:04.563Z,101497.94
2022-10-11T16:49:10.538Z,101502.75
2022-10-11T16:51:13.926Z,101501.41
2022-10-11T16:53:22.200Z,101508.16
2022-10-11T16:55:26.306Z,101506.94
2022-10-11T16:57:30.080Z,101509.25
2022-10-11T16:59:33.048Z,101505.19
2022-10-11T17:01:40.263Z,101509.78
2022-10-11T17:03:43.679Z,101507.41
2022-10-11T17:05:50.901Z,101513.91
2022-10-11T17:07:54.541Z,101518.72
2022-10-11T17:10:02.250Z,101518.00
2022-10-11T17:12:08.363Z,101515.34
2022-10-11T17:14:13.458Z,101521.75
2022-10-11T17:16:17.683Z,101516.78
2022-10-11T17:18:23.686Z,101517.00
2022-10-11T17:20:28.913Z,101517.09
2022-10-11T17:22:36.536Z,101521.22
2022-10-11T17:24:40.616Z,101522.25
2022-10-11T17:26:44.523Z,101523.34
2022-10-11T17:28:48.608Z,101520.91
2022-10-11T17:30:58.287Z,101524.66
2022-10-11T17:33:01.887Z,101523.94
2022-10-11T17:35:06.115Z,101529.50
2022-10-11T17:37:10.045Z,101529.91
2022-10-11T17:39:20.158Z,101523.84
2022-10-11T17:41:31.646Z,101528.34
2022-10-11T17:43:36.084Z,101530.28
2022-10-11T17:45:39.562Z,101523.50
2022-10-11T17:47:43.388Z,101537.78
2022-10-11T17:49:46.631Z,101534.34
2022-10-11T17:51:50.684Z,101529.09
2022-10-11T17:53:55.704Z,101527.50
2022-10-11T17:56:09.044Z,101533.59
2022-10-11T17:58:13.514Z,101532.75
2022-10-11T18:00:28.070Z,101536.53
2022-10-11T18:02:34.183Z,101536.69
2022-10-11T18:04:44.009Z,101538.66
2022-10-11T18:06:50.257Z,101541.59
2022-10-11T18:08:58.297Z,101544.16
2022-10-11T18:11:09.044Z,101541.63
2022-10-11T18:13:15.462Z,101545.34
2022-10-11T18:15:20.030Z,101543.66
2022-10-11T18:17:22.972Z,101551.59
2022-10-11T18:19:26.090Z,101553.47
2022-10-11T18:21:34.277Z,101550.06
2022-10-11T18:23:38.788Z,101549.38
2022-10-11T18:25:52.287Z,101545.03
2022-10-11T18:27:56.696Z,101550.44
2022-10-11T18:29:59.979Z,101543.44
2022-10-11T18:32:03.195Z,101545.16
2022-10-11T18:34:10.850Z,101547.03
2022-10-11T18:36:18.846Z,101547.16
2022-10-11T18:38:24.755Z,101551.69
2022-10-11T18:40:32.382Z,101551.69
2022-10-11T18:42:37.055Z,101557.97
2022-10-11T18:44:41.402Z,101551.94
2022-10-11T18:46:46.812Z,101553.78
2022-10-11T18:48:52.533Z,101555.69
2022-10-11T18:51:08.194Z,101554.84
2022-10-11T18:53:14.577Z,101562.84
2022-10-11T18:55:18.930Z,101562.94
2022-10-11T18:57:24.263Z,101566.53
2022-10-11T18:59:28.410Z,101562.22
2022-10-11T19:01:35.572Z,101561.28
2022-10-11T19:03:43.932Z,101556.22
2022-10-11T19:05:48.663Z,101555.47
2022-10-11T19:07:54.724Z,101560.84
2022-10-11T19:10:04.662Z,101553.91
2022-10-11T19:12:09.044Z,101551.38
2022-10-11T19:14:14.832Z,101554.06
2022-10-11T19:16:20.076Z,101559.41
2022-10-11T19:18:25.516Z,101554.19
2022-10-11T19:20:28.512Z,101542.88
2022-10-11T19:22:32.793Z,101553.47
2022-10-11T19:24:38.835Z,101546.50
2022-10-11T19:26:42.458Z,101554.44
2022-10-11T19:28:49.004Z,101551.81
2022-10-11T19:30:51.981Z,101547.38
2022-10-11T19:32:55.712Z,101548.34
2022-10-11T19:35:02.189Z,101548.25
2022-10-11T19:37:05.214Z,101549.22
2022-10-11T19:39:08.624Z,101555.31
2022-10-11T19:41:12.634Z,101544.78
2022-10-11T19:43:17.849Z,101543.13
2022-10-11T19:45:20.760Z,101543.16
2022-10-11T19:47:25.379Z,101544.09
2022-10-11T19:49:30.551Z,101533.63
2022-10-11T19:51:38.349Z,101538.91
2022-10-11T19:53:44.141Z,101533.72
2022-10-11T19:55:47.791Z,101538.06
2022-10-11T19:57:58.004Z,101538.06
2022-10-11T20:00:01.923Z,101542.50
2022-10-11T20:02:12.191Z,101546.03
2022-10-11T20:04:39.469Z,101545.19
2022-10-11T20:06:49.333Z,101543.38
2022-10-11T20:09:16.625Z,101549.56
2022-10-11T20:11:21.583Z,101544.38
2022-10-11T20:13:25.176Z,101542.69
2022-10-11T20:15:29.507Z,101544.44
2022-10-11T20:17:47.073Z,101552.31
2022-10-11T20:19:50.297Z,101548.88
2022-10-11T20:21:55.254Z,101554.34
2022-10-11T20:24:01.275Z,101546.34
2022-10-11T20:26:11.449Z,101550.03
2022-10-11T20:28:16.485Z,101551.63
2022-10-11T20:30:20.256Z,101547.25
2022-10-11T20:32:24.322Z,101542.88
2022-10-11T20:34:29.104Z,101546.44
2022-10-11T20:36:35.714Z,101544.81
2022-10-11T20:38:42.057Z,101551.97
2022-10-11T20:40:47.046Z,101551.97
2022-10-11T20:42:52.508Z,101541.50
2022-10-11T20:45:00.722Z,101547.59
2022-10-11T20:47:16.688Z,101548.47
2022-10-11T20:49:22.666Z,101549.38
2022-10-11T20:51:27.950Z,101554.63
2022-10-11T20:53:31.427Z,101548.53
2022-10-11T20:55:37.898Z,101544.13
2022-10-11T20:57:45.460Z,101544.22
2022-10-11T20:59:50.167Z,101541.69
2022-10-11T21:01:56.662Z,101545.19
2022-10-11T21:04:01.350Z,101539.06
2022-10-11T21:08:26.130Z,101535.56
2022-10-11T21:10:30.960Z,101539.09
2022-10-11T21:12:41.211Z,101540.91
2022-10-11T21:14:51.330Z,101541.81
2022-10-11T21:17:02.034Z,101541.88
2022-10-11T21:19:06.217Z,101536.66
2022-10-11T21:21:15.807Z,101533.16
2022-10-11T21:23:23.986Z,101537.56
2022-10-11T21:25:29.299Z,101534.16
2022-10-11T21:27:33.187Z,101542.00
2022-10-11T21:29:40.249Z,101539.50
2022-10-11T21:31:48.908Z,101532.34
2022-10-11T21:33:53.875Z,101534.09
2022-10-11T21:35:58.206Z,101536.81
2022-10-11T21:38:03.699Z,101550.03
2022-10-11T21:40:09.635Z,101538.69
2022-10-11T21:42:12.520Z,101531.72
2022-10-11T21:44:22.612Z,101532.66
2022-10-11T21:48:55.150Z,101532.66
2022-10-11T21:51:00.656Z,101530.91
2022-10-11T21:53:08.039Z,101532.66
2022-10-11T21:55:14.565Z,101528.28
2022-10-11T21:57:23.057Z,101534.44
2022-10-11T21:59:26.933Z,101532.69
2022-10-11T22:01:35.592Z,101532.69
2022-10-11T22:03:44.599Z,101524.81
2022-10-11T22:05:50.019Z,101530.09
2022-10-11T22:07:53.898Z,101526.56
2022-10-11T22:09:59.087Z,101528.28
2022-10-11T22:12:05.211Z,101523.94
2022-10-11T22:14:10.080Z,101522.22
2022-10-11T22:16:15.814Z,101520.56
2022-10-11T22:18:21.920Z,101519.72
2022-10-11T22:20:26.677Z,101522.34
2022-10-11T22:22:31.990Z,101525.91
2022-10-11T22:24:35.844Z,101531.13
2022-10-11T22:26:40.951Z,101530.28
2022-10-11T22:28:48.838Z,101532.06
2022-10-11T22:30:53.212Z,101532.13
2022-10-11T22:32:57.582Z,101540.06
2022-10-11T22:35:05.448Z,101542.72
2022-10-11T22:37:08.332Z,101536.66
2022-10-11T22:39:11.919Z,101540.16
2022-10-11T22:41:23.531Z,101545.47
2022-10-11T22:43:30.743Z,101542.00
2022-10-11T22:45:36.946Z,101536.81
2022-10-11T22:47:42.636Z,101537.72
2022-10-11T22:49:47.532Z,101542.97
2022-10-11T22:51:54.272Z,101548.25
2022-10-11T22:53:58.984Z,101548.25
2022-10-11T22:56:10.613Z,101549.16
2022-10-11T22:58:19.463Z,101543.88
2022-10-11T23:00:22.993Z,101543.00
2022-10-11T23:02:34.261Z,101534.28
2022-10-11T23:04:42.184Z,101539.53
2022-10-11T23:06:49.524Z,101533.34
2022-10-11T23:08:55.271Z,101532.47
2022-10-11T23:11:08.514Z,101531.66
2022-10-11T23:13:11.998Z,101536.91
2022-10-11T23:15:16.976Z,101530.81
2022-10-11T23:17:19.920Z,101535.19
2022-10-11T23:19:22.808Z,101541.31
2022-10-11T23:21:25.793Z,101548.34
2022-10-11T23:23:28.668Z,101544.88
2022-10-11T23:25:34.469Z,101546.63
2022-10-11T23:27:37.614Z,101543.97
2022-10-11T23:29:41.178Z,101544.84
2022-10-11T23:31:44.515Z,101541.34
2022-10-11T23:33:48.085Z,101536.13
2022-10-11T23:35:52.410Z,101528.31
2022-10-11T23:37:55.387Z,101537.09
2022-10-11T23:39:58.561Z,101533.59
2022-10-11T23:42:05.743Z,101539.72
2022-10-11T23:44:08.863Z,101539.72
2022-10-11T23:46:12.651Z,101536.25
2022-10-11T23:48:15.570Z,101538.00
2022-10-11T23:50:19.524Z,101538.88
2022-10-11T23:52:22.345Z,101539.72
2022-10-11T23:54:25.401Z,101544.09
2022-10-11T23:56:28.474Z,101541.47
2022-10-11T23:58:32.952Z,101541.44
